Impacts TAF Board
For situational awareness. Not to be used for flight planning purposes.
IDs:

KGEG - Spokane Intl, WA, US

Issued at 0520 UTC 22 Oct 2021
Updated at 0618 UTC 22 Oct 2021
Potential Impact None Slight Moderate High
Time<<22/19Z 22/20Z 22/21Z 22/22Z 22/23Z 23/00Z 23/01Z 23/02Z 23/03Z 23/04Z 23/05Z 23/06Z 23/07Z>>
Type PRVL PRVL PRVL PRVL PRVL PRVL PRVL PRVL PRVL PRVL PRVL
VIS >6 >6 3 3 3 3 3 3 3 3 3
CIG 25 25 10 10 10 10 10 10 10 10 50
Cover OVC OVC OVC OVC OVC OVC OVC OVC OVC OVC OVC
FltCat MVFR MVFR MVFR MVFR MVFR MVFR MVFR MVFR MVFR MVFR MVFR
WX -RA -RA -RA BR -RA BR -RA BR -RA BR -RA BR -RA BR -RA BR -RA BR BR VCSH
WDir 220 220 230 230 230 230 230 230 230 230 210
WSpd 8 8 8 8 8 8 8 8 8 8 12
WGst -- -- -- -- -- -- -- -- -- -- 15
Raw TAF
KGEG 220520Z 2206/2306 07010KT P6SM SCT140 BKN250
  FM220800 10009KT P6SM VCSH BKN080 OVC120
  FM221400 21007KT P6SM -SHRA SCT050 OVC070
  FM221800 22008KT P6SM -RA BKN025 OVC040
  FM222100 23008KT 3SM -RA BR OVC010
  FM230500 21012G15KT 3SM BR VCSH SCT010 OVC050


METAR Board
Radar Display
Forecast Discussion
For situational awareness. Not to be used for flight planning purposes.